Rotterdam Express — DMRX — position and weather

sailwx.info

Track history (hours):
 
Tides and Currents Weather Stations Pressure Air Temp Water Temp Dewpoint Dewpoint Depression Visibility Wind Speed Wind Dir Waves Ship Positions

Rotterdam Express

Last reported at 2016-Aug-24 11:33 UTC. Time now 2016-Aug-24 11:57 UTC.
Position N 44°25' E 008°47'.

Length 294 m; beam 32.2 m; draft 13.6 m.

Type: Ship. MMSI: 211335760.

Date/timePositionNaut miles runAvg speedWind from/ knotsBaromVisibWave heightAir tempDewpointWater temp
2016-Aug-24 11:33N 44°25' E 008°47'0 0.0
2016-Aug-24 10:33N 44°25' E 008°47'0 0.0
2016-Aug-24 09:32N 44°25' E 008°47'0 0.0
2016-Aug-24 08:32N 44°25' E 008°47'0 0.0
2016-Aug-24 07:29N 44°25' E 008°47'0 0.0
2016-Aug-24 06:32N 44°25' E 008°47'0 0.0
2016-Aug-24 04:31N 44°25' E 008°47'0 0.0
2016-Aug-24 03:31N 44°25' E 008°47'0 0.0
2016-Aug-24 02:31N 44°25' E 008°47'0 0.0
2016-Aug-24 01:31N 44°25' E 008°47'0 0.0
2016-Aug-24 00:31N 44°25' E 008°47'0 0.0
2016-Aug-23 23:31N 44°25' E 008°47'0 0.0
2016-Aug-23 22:32N 44°25' E 008°47'0 0.0
2016-Aug-23 21:32N 44°25' E 008°47'0 0.2
2016-Aug-23 20:33N 44°25' E 008°47'6 6.1
2016-Aug-23 19:33N 44°19' E 008°44'1514.5
2016-Aug-23 18:33N 44°07' E 008°54'1514.7
2016-Aug-23 17:34N 43°55' E 009°06'1514.8
2016-Aug-23 16:34N 43°47' E 009°24'1514.7
2016-Aug-23 15:34N 43°40' E 009°42'1514.5
2016-Aug-23 14:33N 43°33' E 009°59'1111.5
2016-Aug-23 13:34N 43°32' E 010°15'4 3.9
2016-Aug-23 12:34N 43°35' E 010°18'0 0.0
2016-Aug-23 11:33N 43°35' E 010°18'0 0.0
2016-Aug-23 10:33N 43°35' E 010°18'0 0.0
2016-Aug-23 09:33N 43°35' E 010°18'0 0.0
2016-Aug-23 08:33N 43°35' E 010°18'0 0.0
2016-Aug-23 07:31N 43°35' E 010°18'0 0.0
2016-Aug-23 06:31N 43°35' E 010°18'0 0.0
2016-Aug-23 05:33N 43°35' E 010°18'0 0.0
2016-Aug-23 04:32N 43°35' E 010°18'0 0.0
2016-Aug-23 03:32N 43°35' E 010°18'0 0.0
2016-Aug-23 02:31N 43°35' E 010°18'0 0.0
2016-Aug-23 01:31N 43°35' E 010°18'0 0.0
2016-Aug-23 00:31N 43°35' E 010°18'0 0.0
2016-Aug-22 23:31N 43°35' E 010°18'0 0.0
2016-Aug-22 22:31N 43°35' E 010°18'0 0.0
2016-Aug-22 21:31N 43°35' E 010°18'0 0.0
2016-Aug-22 20:31N 43°35' E 010°18'0 0.0
2016-Aug-22 19:33N 43°35' E 010°18'0 0.0
2016-Aug-22 18:33N 43°35' E 010°18'0 0.0
2016-Aug-22 17:33N 43°35' E 010°18'0 0.0
2016-Aug-22 16:33N 43°35' E 010°18'5 4.9
2016-Aug-22 15:33N 43°30' E 010°16'5 5.1
2016-Aug-22 14:33N 43°26' E 010°12'1615.6
2016-Aug-22 13:34N 43°11' E 010°05'1515.4
2016-Aug-22 12:34N 42°56' E 009°58'1515.4
2016-Aug-22 11:34N 42°42' E 009°51'22114.6
2016-Aug-21 20:29N 39°01' E 009°42'1313.4
2016-Aug-21 19:33N 38°56' E 009°27'1615.6
2016-Aug-21 18:33N 39°04' E 009°11'1010.2
2016-Aug-21 17:33N 39°13' E 009°04'0 0.4
2016-Aug-21 16:31N 39°13' E 009°04'0 0.0
2016-Aug-21 15:31N 39°13' E 009°04'0 0.0
2016-Aug-21 14:31N 39°13' E 009°04'0 0.0
2016-Aug-21 13:28N 39°13' E 009°04'0 0.0
2016-Aug-21 12:31N 39°13' E 009°04'0 0.0
2016-Aug-21 11:31N 39°13' E 009°04'0 0.0
2016-Aug-21 10:31N 39°13' E 009°04'0 0.0
2016-Aug-21 09:31N 39°13' E 009°04'0 0.0
2016-Aug-21 08:31N 39°13' E 009°04'29 2.4
2016-Aug-20 20:13N 38°44' E 009°07'1015.4
2016-Aug-20 19:33N 38°40' E 008°55'1616.2
2016-Aug-20 18:33N 38°37' E 008°34'2516.8
2016-Aug-20 17:05N 38°37' E 008°03'1716.6
2016-Aug-20 16:04N 38°38' E 007°41'916.8
2016-Aug-20 15:33N 38°38' E 007°30'6117.2
2016-Aug-20 12:00N 38°36' E 006°12'5616.0 130 / 71014.710.8 0.527.720.027.0
2016-Aug-20 08:30N 38°44' E 005°01'1616.6
2016-Aug-20 07:31N 38°45' E 004°40'1616.4
2016-Aug-20 06:33N 38°46' E 004°20'1716.5
2016-Aug-20 05:33N 38°47' E 003°59'1616.6
2016-Aug-20 04:33N 38°48' E 003°38'1616.2
2016-Aug-20 03:33N 38°49' E 003°17'1616.2
2016-Aug-20 02:33N 38°53' E 002°57'1716.6
2016-Aug-20 01:33N 38°60' E 002°38'1716.6
2016-Aug-20 00:33N 39°07' E 002°18'1616.4
2016-Aug-19 23:33N 39°13' E 001°58'1816.6
2016-Aug-19 22:27N 39°15' E 001°35'1616.6
2016-Aug-19 21:31N 39°17' E 001°15'1616.6
2016-Aug-19 20:33N 39°18' E 000°54'1716.5
2016-Aug-19 19:31N 39°20' E 000°32'3316.8
2016-Aug-19 17:33N 39°23' W 000°10'8 7.9
2016-Aug-19 16:33N 39°27' W 000°19'0 0.0
2016-Aug-19 15:34N 39°27' W 000°19'0 0.0
2016-Aug-19 14:31N 39°27' W 000°19'0 0.0
2016-Aug-19 13:33N 39°27' W 000°19'0 0.0
2016-Aug-19 12:32N 39°27' W 000°19'0 0.0
2016-Aug-19 11:32N 39°27' W 000°19'0 0.0
2016-Aug-19 10:32N 39°27' W 000°19'0 0.0
2016-Aug-19 09:32N 39°27' W 000°19'0 0.0
2016-Aug-19 08:32N 39°27' W 000°19'0 0.0
2016-Aug-19 07:32N 39°27' W 000°19'0 0.0
2016-Aug-19 06:32N 39°27' W 000°19'0 0.0
2016-Aug-19 05:33N 39°27' W 000°19'1 0.8
2016-Aug-19 04:33N 39°26' W 000°18'6 5.6
2016-Aug-19 03:30N 39°23' W 000°12'5317.2
2016-Aug-19 00:24N 38°38' E 000°25'1719.2
2016-Aug-18 23:30N 38°24' E 000°12'1919.6
2016-Aug-18 22:31N 38°08' W 000°01'2119.6
2016-Aug-18 21:28N 37°51' W 000°16'2219.3
2016-Aug-18 20:19N 37°33' W 000°33'1519.4
2016-Aug-18 19:32N 37°22' W 000°46'4119.1
2016-Aug-18 17:24N 36°55' W 001°24'1719.2
2016-Aug-18 16:32N 36°44' W 001°40'2119.4
2016-Aug-18 15:27N 36°30' W 001°59'1718.8
2016-Aug-18 14:33N 36°21' W 002°17'1919.1
2016-Aug-18 13:32N 36°18' W 002°41'1919.2
2016-Aug-18 12:32N 36°15' W 003°04'11118.6
2016-Aug-18 06:34N 35°59' W 005°21'11 1.2
2016-Aug-17 21:18N 35°54' W 005°33'2 0.6
2016-Aug-17 18:33N 35°52' W 005°34'0 0.1
2016-Aug-17 17:28N 35°52' W 005°34'11 8.2
2016-Aug-17 16:05N 35°53' W 005°48'19320.2
2016-Aug-17 06:33N 36°55' W 009°35'2121.2
2016-Aug-17 05:33N 37°16' W 009°34'2321.6
2016-Aug-17 04:31N 37°38' W 009°30'2121.6
2016-Aug-17 03:33N 37°59' W 009°28'2121.0
2016-Aug-17 02:33N 38°20' W 009°25'1817.7
2016-Aug-17 01:33N 38°37' W 009°23'1111.3
2016-Aug-17 00:33N 38°42' W 009°09'0 0.5
2016-Aug-16 23:32N 38°42' W 009°10'0 0.0
2016-Aug-16 22:33N 38°42' W 009°10'0 0.0
2016-Aug-16 21:33N 38°42' W 009°10'0 0.0
2016-Aug-16 20:33N 38°42' W 009°10'0 0.0
2016-Aug-16 19:33N 38°42' W 009°10'0 0.0
2016-Aug-16 18:33N 38°42' W 009°10'0 0.0
2016-Aug-16 17:33N 38°42' W 009°10'0 0.0
2016-Aug-16 16:33N 38°42' W 009°10'0 0.0
2016-Aug-16 15:33N 38°42' W 009°10'0 0.0
2016-Aug-16 14:33N 38°42' W 009°10'0 0.0
2016-Aug-16 13:33N 38°42' W 009°10'0 0.0
2016-Aug-16 12:32N 38°42' W 009°10'0 0.0
2016-Aug-16 11:33N 38°42' W 009°10'0 0.0
2016-Aug-16 10:33N 38°42' W 009°10'0 0.0
2016-Aug-16 09:33N 38°42' W 009°10'0 0.0
2016-Aug-16 08:33N 38°42' W 009°10'0 0.0
2016-Aug-16 07:33N 38°42' W 009°10'15 4.9
2016-Aug-16 04:33N 38°38' W 009°28'1616.1
2016-Aug-16 03:33N 38°35' W 009°48'1616.1
2016-Aug-16 02:33N 38°34' W 010°09'1616.2
2016-Aug-16 01:34N 38°33' W 010°29'1716.3
2016-Aug-16 00:33N 38°32' W 010°50'1716.0
2016-Aug-15 23:31N 38°30' W 011°11'5216.2
2016-Aug-15 20:17N 38°26' W 012°18'1216.2
2016-Aug-15 19:31N 38°24' W 012°33'3316.2
2016-Aug-15 17:28N 38°21' W 013°15'1515.9
2016-Aug-15 16:33N 38°19' W 013°34'7416.1
2016-Aug-15 12:00N 38°06' W 015°06'25516.5 320 / 121021.910.8 0.524.418.822.0
2016-Aug-14 20:32N 37°31' W 020°26'1816.5
2016-Aug-14 19:27N 37°27' W 020°48'5016.4
2016-Aug-14 16:23N 37°18' W 021°51'1416.3
2016-Aug-14 15:33N 37°15' W 022°07'1716.4
2016-Aug-14 14:32N 37°11' W 022°28'1716.5
2016-Aug-14 13:31N 37°08' W 022°48'2116.3
2016-Aug-14 12:13N 37°03' W 023°15'1116.4
2016-Aug-14 11:34N 37°01' W 023°28'  
Track history (hours):
 
Tides and Currents Weather Stations Pressure Air Temp Water Temp Dewpoint Dewpoint Depression Visibility Wind Speed Wind Dir Waves Ship Positions

Rotterdam Express

Last reported at 2016-Aug-24 11:33 UTC. Time now 2016-Aug-24 11:57 UTC.
Position N 44°25' E 008°47'.

Length 294 m; beam 32.2 m; draft 13.6 m.

Type: Ship. MMSI: 211335760.

Date/timePositionNaut miles runAvg speedWind from/ knotsBaromVisibWave heightAir tempDewpointWater temp
2016-Aug-24 11:33N 44°25' E 008°47'0 0.0
2016-Aug-24 10:33N 44°25' E 008°47'0 0.0
2016-Aug-24 09:32N 44°25' E 008°47'0 0.0
2016-Aug-24 08:32N 44°25' E 008°47'0 0.0
2016-Aug-24 07:29N 44°25' E 008°47'0 0.0
2016-Aug-24 06:32N 44°25' E 008°47'0 0.0
2016-Aug-24 04:31N 44°25' E 008°47'0 0.0
2016-Aug-24 03:31N 44°25' E 008°47'0 0.0
2016-Aug-24 02:31N 44°25' E 008°47'0 0.0
2016-Aug-24 01:31N 44°25' E 008°47'0 0.0
2016-Aug-24 00:31N 44°25' E 008°47'0 0.0
2016-Aug-23 23:31N 44°25' E 008°47'0 0.0
2016-Aug-23 22:32N 44°25' E 008°47'0 0.0
2016-Aug-23 21:32N 44°25' E 008°47'0 0.2
2016-Aug-23 20:33N 44°25' E 008°47'6 6.1
2016-Aug-23 19:33N 44°19' E 008°44'1514.5
2016-Aug-23 18:33N 44°07' E 008°54'1514.7
2016-Aug-23 17:34N 43°55' E 009°06'1514.8
2016-Aug-23 16:34N 43°47' E 009°24'1514.7
2016-Aug-23 15:34N 43°40' E 009°42'1514.5
2016-Aug-23 14:33N 43°33' E 009°59'1111.5
2016-Aug-23 13:34N 43°32' E 010°15'4 3.9
2016-Aug-23 12:34N 43°35' E 010°18'0 0.0
2016-Aug-23 11:33N 43°35' E 010°18'0 0.0
2016-Aug-23 10:33N 43°35' E 010°18'0 0.0
2016-Aug-23 09:33N 43°35' E 010°18'0 0.0
2016-Aug-23 08:33N 43°35' E 010°18'0 0.0
2016-Aug-23 07:31N 43°35' E 010°18'0 0.0
2016-Aug-23 06:31N 43°35' E 010°18'0 0.0
2016-Aug-23 05:33N 43°35' E 010°18'0 0.0
2016-Aug-23 04:32N 43°35' E 010°18'0 0.0
2016-Aug-23 03:32N 43°35' E 010°18'0 0.0
2016-Aug-23 02:31N 43°35' E 010°18'0 0.0
2016-Aug-23 01:31N 43°35' E 010°18'0 0.0
2016-Aug-23 00:31N 43°35' E 010°18'0 0.0
2016-Aug-22 23:31N 43°35' E 010°18'0 0.0
2016-Aug-22 22:31N 43°35' E 010°18'0 0.0
2016-Aug-22 21:31N 43°35' E 010°18'0 0.0
2016-Aug-22 20:31N 43°35' E 010°18'0 0.0
2016-Aug-22 19:33N 43°35' E 010°18'0 0.0
2016-Aug-22 18:33N 43°35' E 010°18'0 0.0
2016-Aug-22 17:33N 43°35' E 010°18'0 0.0
2016-Aug-22 16:33N 43°35' E 010°18'5 4.9
2016-Aug-22 15:33N 43°30' E 010°16'5 5.1
2016-Aug-22 14:33N 43°26' E 010°12'1615.6
2016-Aug-22 13:34N 43°11' E 010°05'1515.4
2016-Aug-22 12:34N 42°56' E 009°58'1515.4
2016-Aug-22 11:34N 42°42' E 009°51'22114.6
2016-Aug-21 20:29N 39°01' E 009°42'1313.4
2016-Aug-21 19:33N 38°56' E 009°27'1615.6
2016-Aug-21 18:33N 39°04' E 009°11'1010.2
2016-Aug-21 17:33N 39°13' E 009°04'0 0.4
2016-Aug-21 16:31N 39°13' E 009°04'0 0.0
2016-Aug-21 15:31N 39°13' E 009°04'0 0.0
2016-Aug-21 14:31N 39°13' E 009°04'0 0.0
2016-Aug-21 13:28N 39°13' E 009°04'0 0.0
2016-Aug-21 12:31N 39°13' E 009°04'0 0.0
2016-Aug-21 11:31N 39°13' E 009°04'0 0.0
2016-Aug-21 10:31N 39°13' E 009°04'0 0.0
2016-Aug-21 09:31N 39°13' E 009°04'0 0.0
2016-Aug-21 08:31N 39°13' E 009°04'29 2.4
2016-Aug-20 20:13N 38°44' E 009°07'1015.4
2016-Aug-20 19:33N 38°40' E 008°55'1616.2
2016-Aug-20 18:33N 38°37' E 008°34'2516.8
2016-Aug-20 17:05N 38°37' E 008°03'1716.6
2016-Aug-20 16:04N 38°38' E 007°41'916.8
2016-Aug-20 15:33N 38°38' E 007°30'6117.2
2016-Aug-20 12:00N 38°36' E 006°12'5616.0 130 / 71014.710.8 0.527.720.027.0
2016-Aug-20 08:30N 38°44' E 005°01'1616.6
2016-Aug-20 07:31N 38°45' E 004°40'1616.4
2016-Aug-20 06:33N 38°46' E 004°20'1716.5
2016-Aug-20 05:33N 38°47' E 003°59'1616.6
2016-Aug-20 04:33N 38°48' E 003°38'1616.2
2016-Aug-20 03:33N 38°49' E 003°17'1616.2
2016-Aug-20 02:33N 38°53' E 002°57'1716.6
2016-Aug-20 01:33N 38°60' E 002°38'1716.6
2016-Aug-20 00:33N 39°07' E 002°18'1616.4
2016-Aug-19 23:33N 39°13' E 001°58'1816.6
2016-Aug-19 22:27N 39°15' E 001°35'1616.6
2016-Aug-19 21:31N 39°17' E 001°15'1616.6
2016-Aug-19 20:33N 39°18' E 000°54'1716.5
2016-Aug-19 19:31N 39°20' E 000°32'3316.8
2016-Aug-19 17:33N 39°23' W 000°10'8 7.9
2016-Aug-19 16:33N 39°27' W 000°19'0 0.0
2016-Aug-19 15:34N 39°27' W 000°19'0 0.0
2016-Aug-19 14:31N 39°27' W 000°19'0 0.0
2016-Aug-19 13:33N 39°27' W 000°19'0 0.0
2016-Aug-19 12:32N 39°27' W 000°19'0 0.0
2016-Aug-19 11:32N 39°27' W 000°19'0 0.0
2016-Aug-19 10:32N 39°27' W 000°19'0 0.0
2016-Aug-19 09:32N 39°27' W 000°19'0 0.0
2016-Aug-19 08:32N 39°27' W 000°19'0 0.0
2016-Aug-19 07:32N 39°27' W 000°19'0 0.0
2016-Aug-19 06:32N 39°27' W 000°19'0 0.0
2016-Aug-19 05:33N 39°27' W 000°19'1 0.8
2016-Aug-19 04:33N 39°26' W 000°18'6 5.6
2016-Aug-19 03:30N 39°23' W 000°12'5317.2
2016-Aug-19 00:24N 38°38' E 000°25'1719.2
2016-Aug-18 23:30N 38°24' E 000°12'1919.6
2016-Aug-18 22:31N 38°08' W 000°01'2119.6
2016-Aug-18 21:28N 37°51' W 000°16'2219.3
2016-Aug-18 20:19N 37°33' W 000°33'1519.4
2016-Aug-18 19:32N 37°22' W 000°46'4119.1
2016-Aug-18 17:24N 36°55' W 001°24'1719.2
2016-Aug-18 16:32N 36°44' W 001°40'2119.4
2016-Aug-18 15:27N 36°30' W 001°59'1718.8
2016-Aug-18 14:33N 36°21' W 002°17'1919.1
2016-Aug-18 13:32N 36°18' W 002°41'1919.2
2016-Aug-18 12:32N 36°15' W 003°04'11118.6
2016-Aug-18 06:34N 35°59' W 005°21'11 1.2
2016-Aug-17 21:18N 35°54' W 005°33'2 0.6
2016-Aug-17 18:33N 35°52' W 005°34'0 0.1
2016-Aug-17 17:28N 35°52' W 005°34'11 8.2
2016-Aug-17 16:05N 35°53' W 005°48'19320.2
2016-Aug-17 06:33N 36°55' W 009°35'2121.2
2016-Aug-17 05:33N 37°16' W 009°34'2321.6
2016-Aug-17 04:31N 37°38' W 009°30'2121.6
2016-Aug-17 03:33N 37°59' W 009°28'2121.0
2016-Aug-17 02:33N 38°20' W 009°25'1817.7
2016-Aug-17 01:33N 38°37' W 009°23'1111.3
2016-Aug-17 00:33N 38°42' W 009°09'0 0.5
2016-Aug-16 23:32N 38°42' W 009°10'0 0.0
2016-Aug-16 22:33N 38°42' W 009°10'0 0.0
2016-Aug-16 21:33N 38°42' W 009°10'0 0.0
2016-Aug-16 20:33N 38°42' W 009°10'0 0.0
2016-Aug-16 19:33N 38°42' W 009°10'0 0.0
2016-Aug-16 18:33N 38°42' W 009°10'0 0.0
2016-Aug-16 17:33N 38°42' W 009°10'0 0.0
2016-Aug-16 16:33N 38°42' W 009°10'0 0.0
2016-Aug-16 15:33N 38°42' W 009°10'0 0.0
2016-Aug-16 14:33N 38°42' W 009°10'0 0.0
2016-Aug-16 13:33N 38°42' W 009°10'0 0.0
2016-Aug-16 12:32N 38°42' W 009°10'0 0.0
2016-Aug-16 11:33N 38°42' W 009°10'0 0.0
2016-Aug-16 10:33N 38°42' W 009°10'0 0.0
2016-Aug-16 09:33N 38°42' W 009°10'0 0.0
2016-Aug-16 08:33N 38°42' W 009°10'0 0.0
2016-Aug-16 07:33N 38°42' W 009°10'15 4.9
2016-Aug-16 04:33N 38°38' W 009°28'1616.1
2016-Aug-16 03:33N 38°35' W 009°48'1616.1
2016-Aug-16 02:33N 38°34' W 010°09'1616.2
2016-Aug-16 01:34N 38°33' W 010°29'1716.3
2016-Aug-16 00:33N 38°32' W 010°50'1716.0
2016-Aug-15 23:31N 38°30' W 011°11'5216.2
2016-Aug-15 20:17N 38°26' W 012°18'1216.2
2016-Aug-15 19:31N 38°24' W 012°33'3316.2
2016-Aug-15 17:28N 38°21' W 013°15'1515.9
2016-Aug-15 16:33N 38°19' W 013°34'7416.1
2016-Aug-15 12:00N 38°06' W 015°06'25516.5 320 / 121021.910.8 0.524.418.822.0
2016-Aug-14 20:32N 37°31' W 020°26'1816.5
2016-Aug-14 19:27N 37°27' W 020°48'5016.4
2016-Aug-14 16:23N 37°18' W 021°51'1416.3
2016-Aug-14 15:33N 37°15' W 022°07'1716.4
2016-Aug-14 14:32N 37°11' W 022°28'1716.5
2016-Aug-14 13:31N 37°08' W 022°48'2116.3
2016-Aug-14 12:13N 37°03' W 023°15'1116.4
2016-Aug-14 11:34N 37°01' W 023°28'  

Dump ship's entire track history